sensor_id;sensor_type;location;lat;lon;timestamp;P1;durP1;ratioP1;P2;durP2;ratioP2
76447;SDS011;65284;51.040;13.722;2023-07-20T00:01:33;6.53;;;3.00;;
76447;SDS011;65284;51.040;13.722;2023-07-20T00:04:00;5.05;;;2.80;;
76447;SDS011;65284;51.040;13.722;2023-07-20T00:06:26;5.82;;;2.80;;
76447;SDS011;65284;51.040;13.722;2023-07-20T00:08:54;6.25;;;2.97;;
76447;SDS011;65284;51.040;13.722;2023-07-20T00:11:27;5.93;;;2.78;;
76447;SDS011;65284;51.040;13.722;2023-07-20T00:13:54;5.72;;;3.10;;
76447;SDS011;65284;51.040;13.722;2023-07-20T00:16:20;5.80;;;2.60;;
76447;SDS011;65284;51.040;13.722;2023-07-20T00:18:47;5.25;;;2.85;;
76447;SDS011;65284;51.040;13.722;2023-07-20T00:21:14;5.07;;;2.60;;
76447;SDS011;65284;51.040;13.722;2023-07-20T00:23:41;5.47;;;2.65;;
76447;SDS011;65284;51.040;13.722;2023-07-20T00:26:11;6.75;;;2.67;;
76447;SDS011;65284;51.040;13.722;2023-07-20T00:28:37;5.93;;;2.70;;
76447;SDS011;65284;51.040;13.722;2023-07-20T00:31:04;4.63;;;2.70;;
76447;SDS011;65284;51.040;13.722;2023-07-20T00:33:31;5.75;;;2.53;;
76447;SDS011;65284;51.040;13.722;2023-07-20T00:35:57;5.50;;;2.67;;
76447;SDS011;65284;51.040;13.722;2023-07-20T00:38:26;3.92;;;2.30;;
76447;SDS011;65284;51.040;13.722;2023-07-20T00:40:52;4.75;;;2.40;;
76447;SDS011;65284;51.040;13.722;2023-07-20T00:43:19;6.50;;;2.42;;
76447;SDS011;65284;51.040;13.722;2023-07-20T00:45:48;4.10;;;2.30;;
76447;SDS011;65284;51.040;13.722;2023-07-20T00:48:14;5.00;;;2.30;;
76447;SDS011;65284;51.040;13.722;2023-07-20T00:50:41;3.97;;;1.77;;
76447;SDS011;65284;51.040;13.722;2023-07-20T00:53:08;3.80;;;2.20;;
76447;SDS011;65284;51.040;13.722;2023-07-20T00:55:35;3.28;;;1.90;;
76447;SDS011;65284;51.040;13.722;2023-07-20T00:58:02;5.15;;;2.13;;
76447;SDS011;65284;51.040;13.722;2023-07-20T01:00:29;5.20;;;1.88;;
76447;SDS011;65284;51.040;13.722;2023-07-20T01:02:56;3.85;;;1.42;;
76447;SDS011;65284;51.040;13.722;2023-07-20T01:05:24;2.80;;;1.70;;
76447;SDS011;65284;51.040;13.722;2023-07-20T01:07:59;6.05;;;1.50;;
76447;SDS011;65284;51.040;13.722;2023-07-20T01:10:36;2.55;;;1.30;;
76447;SDS011;65284;51.040;13.722;2023-07-20T01:13:17;2.90;;;1.17;;
76447;SDS011;65284;51.040;13.722;2023-07-20T01:15:49;3.75;;;1.35;;
76447;SDS011;65284;51.040;13.722;2023-07-20T01:18:17;3.78;;;1.30;;
76447;SDS011;65284;51.040;13.722;2023-07-20T01:20:44;3.10;;;1.10;;
76447;SDS011;65284;51.040;13.722;2023-07-20T01:23:21;4.57;;;1.25;;
76447;SDS011;65284;51.040;13.722;2023-07-20T01:31:16;4.05;;;1.58;;
76447;SDS011;65284;51.040;13.722;2023-07-20T01:36:14;6.00;;;2.10;;
76447;SDS011;65284;51.040;13.722;2023-07-20T01:38:43;4.43;;;2.28;;
76447;SDS011;65284;51.040;13.722;2023-07-20T01:41:11;7.45;;;2.70;;
76447;SDS011;65284;51.040;13.722;2023-07-20T01:43:38;5.97;;;2.38;;
76447;SDS011;65284;51.040;13.722;2023-07-20T01:46:04;7.15;;;2.33;;
76447;SDS011;65284;51.040;13.722;2023-07-20T01:48:31;6.07;;;2.28;;
76447;SDS011;65284;51.040;13.722;2023-07-20T01:50:58;4.97;;;2.30;;
76447;SDS011;65284;51.040;13.722;2023-07-20T01:53:24;7.07;;;2.30;;
76447;SDS011;65284;51.040;13.722;2023-07-20T01:55:53;7.68;;;2.60;;
76447;SDS011;65284;51.040;13.722;2023-07-20T01:58:20;5.32;;;2.70;;
76447;SDS011;65284;51.040;13.722;2023-07-20T02:00:47;5.50;;;2.58;;
76447;SDS011;65284;51.040;13.722;2023-07-20T02:03:14;6.70;;;3.10;;
76447;SDS011;65284;51.040;13.722;2023-07-20T02:05:43;7.35;;;3.03;;
76447;SDS011;65284;51.040;13.722;2023-07-20T02:08:10;7.38;;;2.88;;
76447;SDS011;65284;51.040;13.722;2023-07-20T02:10:36;5.38;;;3.05;;
76447;SDS011;65284;51.040;13.722;2023-07-20T02:13:03;6.18;;;3.55;;
76447;SDS011;65284;51.040;13.722;2023-07-20T02:15:29;8.85;;;3.30;;
76447;SDS011;65284;51.040;13.722;2023-07-20T02:17:56;7.22;;;3.55;;
76447;SDS011;65284;51.040;13.722;2023-07-20T02:20:22;8.00;;;3.20;;
76447;SDS011;65284;51.040;13.722;2023-07-20T02:22:49;6.80;;;3.33;;
76447;SDS011;65284;51.040;13.722;2023-07-20T02:25:15;10.65;;;3.50;;
76447;SDS011;65284;51.040;13.722;2023-07-20T02:27:42;8.27;;;3.63;;
76447;SDS011;65284;51.040;13.722;2023-07-20T02:30:08;7.78;;;3.90;;
76447;SDS011;65284;51.040;13.722;2023-07-20T02:32:36;9.73;;;4.47;;
76447;SDS011;65284;51.040;13.722;2023-07-20T02:35:02;8.20;;;4.05;;
76447;SDS011;65284;51.040;13.722;2023-07-20T02:37:29;7.63;;;4.30;;
76447;SDS011;65284;51.040;13.722;2023-07-20T02:39:57;10.93;;;4.13;;
76447;SDS011;65284;51.040;13.722;2023-07-20T02:42:23;8.55;;;4.10;;
76447;SDS011;65284;51.040;13.722;2023-07-20T02:44:52;8.25;;;4.20;;
76447;SDS011;65284;51.040;13.722;2023-07-20T02:47:18;8.40;;;4.22;;
76447;SDS011;65284;51.040;13.722;2023-07-20T02:49:45;9.02;;;4.50;;
76447;SDS011;65284;51.040;13.722;2023-07-20T02:52:11;7.25;;;4.43;;
76447;SDS011;65284;51.040;13.722;2023-07-20T02:54:38;7.53;;;4.35;;
76447;SDS011;65284;51.040;13.722;2023-07-20T02:57:04;8.95;;;4.47;;
76447;SDS011;65284;51.040;13.722;2023-07-20T02:59:31;9.82;;;4.78;;
76447;SDS011;65284;51.040;13.722;2023-07-20T03:01:58;8.80;;;4.15;;
76447;SDS011;65284;51.040;13.722;2023-07-20T03:04:28;8.77;;;4.22;;
76447;SDS011;65284;51.040;13.722;2023-07-20T03:06:54;8.23;;;4.50;;
76447;SDS011;65284;51.040;13.722;2023-07-20T03:09:20;8.20;;;4.75;;
76447;SDS011;65284;51.040;13.722;2023-07-20T03:11:49;9.45;;;4.53;;
76447;SDS011;65284;51.040;13.722;2023-07-20T03:14:16;9.95;;;4.85;;
76447;SDS011;65284;51.040;13.722;2023-07-20T03:16:42;9.18;;;4.88;;
76447;SDS011;65284;51.040;13.722;2023-07-20T03:19:09;6.68;;;4.35;;
76447;SDS011;65284;51.040;13.722;2023-07-20T03:21:36;9.73;;;5.28;;
76447;SDS011;65284;51.040;13.722;2023-07-20T03:24:07;9.63;;;5.50;;
76447;SDS011;65284;51.040;13.722;2023-07-20T03:26:34;12.43;;;4.72;;
76447;SDS011;65284;51.040;13.722;2023-07-20T03:29:01;11.57;;;4.93;;
76447;SDS011;65284;51.040;13.722;2023-07-20T03:31:28;10.77;;;5.03;;
76447;SDS011;65284;51.040;13.722;2023-07-20T03:33:55;7.25;;;4.38;;
76447;SDS011;65284;51.040;13.722;2023-07-20T03:36:22;8.40;;;4.40;;
76447;SDS011;65284;51.040;13.722;2023-07-20T03:38:49;9.07;;;4.50;;
76447;SDS011;65284;51.040;13.722;2023-07-20T03:41:16;10.90;;;4.40;;
76447;SDS011;65284;51.040;13.722;2023-07-20T03:43:42;7.53;;;4.30;;
76447;SDS011;65284;51.040;13.722;2023-07-20T03:46:09;7.97;;;4.30;;
76447;SDS011;65284;51.040;13.722;2023-07-20T03:48:35;8.48;;;3.92;;
76447;SDS011;65284;51.040;13.722;2023-07-20T03:51:02;9.20;;;4.20;;
76447;SDS011;65284;51.040;13.722;2023-07-20T03:53:28;7.35;;;4.10;;
76447;SDS011;65284;51.040;13.722;2023-07-20T03:55:55;7.60;;;4.18;;
76447;SDS011;65284;51.040;13.722;2023-07-20T03:58:22;8.48;;;4.05;;
76447;SDS011;65284;51.040;13.722;2023-07-20T04:00:50;9.52;;;4.40;;
76447;SDS011;65284;51.040;13.722;2023-07-20T04:03:17;11.90;;;4.40;;
76447;SDS011;65284;51.040;13.722;2023-07-20T04:05:45;8.65;;;4.40;;
76447;SDS011;65284;51.040;13.722;2023-07-20T04:08:12;8.68;;;4.00;;
76447;SDS011;65284;51.040;13.722;2023-07-20T04:10:39;9.80;;;4.68;;
76447;SDS011;65284;51.040;13.722;2023-07-20T04:13:05;10.43;;;4.57;;
76447;SDS011;65284;51.040;13.722;2023-07-20T04:15:33;12.10;;;4.57;;
76447;SDS011;65284;51.040;13.722;2023-07-20T04:17:59;7.95;;;4.35;;
76447;SDS011;65284;51.040;13.722;2023-07-20T04:20:27;9.30;;;4.05;;
76447;SDS011;65284;51.040;13.722;2023-07-20T04:22:53;8.98;;;4.18;;
76447;SDS011;65284;51.040;13.722;2023-07-20T04:25:20;8.23;;;4.13;;
76447;SDS011;65284;51.040;13.722;2023-07-20T04:27:46;9.35;;;4.40;;
76447;SDS011;65284;51.040;13.722;2023-07-20T04:30:13;11.77;;;4.90;;
76447;SDS011;65284;51.040;13.722;2023-07-20T04:32:41;13.85;;;4.97;;
76447;SDS011;65284;51.040;13.722;2023-07-20T04:35:10;9.80;;;4.88;;
76447;SDS011;65284;51.040;13.722;2023-07-20T04:37:37;11.38;;;5.15;;
76447;SDS011;65284;51.040;13.722;2023-07-20T04:40:03;9.45;;;5.32;;
76447;SDS011;65284;51.040;13.722;2023-07-20T04:42:30;10.57;;;5.00;;
76447;SDS011;65284;51.040;13.722;2023-07-20T04:44:56;9.63;;;5.45;;
76447;SDS011;65284;51.040;13.722;2023-07-20T04:47:23;10.82;;;5.70;;
76447;SDS011;65284;51.040;13.722;2023-07-20T04:49:50;10.20;;;6.20;;
76447;SDS011;65284;51.040;13.722;2023-07-20T04:52:16;12.45;;;6.30;;
76447;SDS011;65284;51.040;13.722;2023-07-20T04:54:43;11.65;;;6.57;;
76447;SDS011;65284;51.040;13.722;2023-07-20T04:57:10;13.07;;;6.38;;
76447;SDS011;65284;51.040;13.722;2023-07-20T04:59:38;10.00;;;5.78;;
76447;SDS011;65284;51.040;13.722;2023-07-20T05:02:04;14.63;;;6.32;;
76447;SDS011;65284;51.040;13.722;2023-07-20T05:04:31;10.38;;;5.88;;
76447;SDS011;65284;51.040;13.722;2023-07-20T05:07:04;13.50;;;6.18;;
76447;SDS011;65284;51.040;13.722;2023-07-20T05:09:31;10.85;;;6.20;;
76447;SDS011;65284;51.040;13.722;2023-07-20T05:11:57;8.57;;;5.95;;
76447;SDS011;65284;51.040;13.722;2023-07-20T05:14:23;11.13;;;5.80;;
76447;SDS011;65284;51.040;13.722;2023-07-20T05:16:50;12.73;;;6.00;;
76447;SDS011;65284;51.040;13.722;2023-07-20T05:19:17;10.20;;;5.80;;
76447;SDS011;65284;51.040;13.722;2023-07-20T05:21:44;11.02;;;5.68;;
76447;SDS011;65284;51.040;13.722;2023-07-20T05:24:10;10.50;;;5.78;;
76447;SDS011;65284;51.040;13.722;2023-07-20T05:26:36;9.48;;;5.00;;
76447;SDS011;65284;51.040;13.722;2023-07-20T05:29:04;10.95;;;5.55;;
76447;SDS011;65284;51.040;13.722;2023-07-20T05:31:30;10.30;;;5.10;;
76447;SDS011;65284;51.040;13.722;2023-07-20T05:33:57;11.77;;;5.70;;
76447;SDS011;65284;51.040;13.722;2023-07-20T05:36:24;11.13;;;5.20;;
76447;SDS011;65284;51.040;13.722;2023-07-20T05:38:51;11.60;;;4.80;;
76447;SDS011;65284;51.040;13.722;2023-07-20T05:41:17;8.82;;;4.47;;
76447;SDS011;65284;51.040;13.722;2023-07-20T05:43:43;9.68;;;4.43;;
76447;SDS011;65284;51.040;13.722;2023-07-20T05:46:10;8.73;;;4.88;;
76447;SDS011;65284;51.040;13.722;2023-07-20T05:48:36;9.25;;;3.83;;
76447;SDS011;65284;51.040;13.722;2023-07-20T05:51:03;6.78;;;4.00;;
76447;SDS011;65284;51.040;13.722;2023-07-20T05:53:29;7.32;;;3.70;;
76447;SDS011;65284;51.040;13.722;2023-07-20T05:55:56;8.40;;;4.28;;
76447;SDS011;65284;51.040;13.722;2023-07-20T05:58:22;8.00;;;4.28;;
76447;SDS011;65284;51.040;13.722;2023-07-20T06:00:49;8.25;;;4.30;;
76447;SDS011;65284;51.040;13.722;2023-07-20T06:03:17;9.52;;;4.90;;
76447;SDS011;65284;51.040;13.722;2023-07-20T06:05:43;9.73;;;5.13;;
76447;SDS011;65284;51.040;13.722;2023-07-20T06:08:10;9.38;;;5.25;;
76447;SDS011;65284;51.040;13.722;2023-07-20T06:10:36;10.10;;;5.30;;
76447;SDS011;65284;51.040;13.722;2023-07-20T06:13:03;11.55;;;4.88;;
76447;SDS011;65284;51.040;13.722;2023-07-20T06:15:32;10.30;;;5.50;;
76447;SDS011;65284;51.040;13.722;2023-07-20T06:18:01;15.23;;;6.82;;
76447;SDS011;65284;51.040;13.722;2023-07-20T06:20:29;11.13;;;6.72;;
76447;SDS011;65284;51.040;13.722;2023-07-20T06:22:56;12.93;;;8.00;;
76447;SDS011;65284;51.040;13.722;2023-07-20T06:25:23;16.10;;;8.35;;
76447;SDS011;65284;51.040;13.722;2023-07-20T06:27:49;14.07;;;8.73;;
76447;SDS011;65284;51.040;13.722;2023-07-20T06:30:18;15.65;;;10.60;;
76447;SDS011;65284;51.040;13.722;2023-07-20T06:32:44;18.73;;;10.93;;
76447;SDS011;65284;51.040;13.722;2023-07-20T06:35:11;12.10;;;9.43;;
76447;SDS011;65284;51.040;13.722;2023-07-20T06:37:38;18.95;;;12.18;;
76447;SDS011;65284;51.040;13.722;2023-07-20T06:40:04;15.55;;;10.95;;
76447;SDS011;65284;51.040;13.722;2023-07-20T06:42:34;16.60;;;9.85;;
76447;SDS011;65284;51.040;13.722;2023-07-20T06:45:04;12.27;;;8.32;;
76447;SDS011;65284;51.040;13.722;2023-07-20T06:47:31;14.52;;;8.60;;
76447;SDS011;65284;51.040;13.722;2023-07-20T06:49:57;11.43;;;8.32;;
76447;SDS011;65284;51.040;13.722;2023-07-20T06:52:24;12.93;;;8.88;;
76447;SDS011;65284;51.040;13.722;2023-07-20T06:54:50;12.40;;;8.77;;
76447;SDS011;65284;51.040;13.722;2023-07-20T06:57:17;14.68;;;7.45;;
76447;SDS011;65284;51.040;13.722;2023-07-20T06:59:45;14.02;;;9.45;;
76447;SDS011;65284;51.040;13.722;2023-07-20T07:02:11;12.40;;;8.15;;
76447;SDS011;65284;51.040;13.722;2023-07-20T07:04:41;13.10;;;8.30;;
76447;SDS011;65284;51.040;13.722;2023-07-20T07:07:08;11.45;;;7.82;;
76447;SDS011;65284;51.040;13.722;2023-07-20T07:09:35;12.10;;;8.57;;
76447;SDS011;65284;51.040;13.722;2023-07-20T07:12:03;12.40;;;7.95;;
76447;SDS011;65284;51.040;13.722;2023-07-20T07:14:30;12.98;;;7.70;;
76447;SDS011;65284;51.040;13.722;2023-07-20T07:16:58;11.07;;;7.18;;
76447;SDS011;65284;51.040;13.722;2023-07-20T07:19:25;12.27;;;8.82;;
76447;SDS011;65284;51.040;13.722;2023-07-20T07:21:51;12.82;;;7.90;;
76447;SDS011;65284;51.040;13.722;2023-07-20T07:24:18;14.65;;;8.82;;
76447;SDS011;65284;51.040;13.722;2023-07-20T07:26:45;11.48;;;7.28;;
76447;SDS011;65284;51.040;13.722;2023-07-20T07:29:12;9.52;;;7.03;;
76447;SDS011;65284;51.040;13.722;2023-07-20T07:31:38;10.20;;;8.30;;
76447;SDS011;65284;51.040;13.722;2023-07-20T07:34:05;11.40;;;7.50;;
76447;SDS011;65284;51.040;13.722;2023-07-20T07:36:31;11.40;;;6.85;;
76447;SDS011;65284;51.040;13.722;2023-07-20T07:38:58;9.52;;;6.07;;
76447;SDS011;65284;51.040;13.722;2023-07-20T07:41:28;7.57;;;5.38;;
76447;SDS011;65284;51.040;13.722;2023-07-20T07:43:54;9.35;;;7.00;;
76447;SDS011;65284;51.040;13.722;2023-07-20T07:46:21;7.28;;;6.10;;
76447;SDS011;65284;51.040;13.722;2023-07-20T07:48:48;8.18;;;5.93;;
76447;SDS011;65284;51.040;13.722;2023-07-20T07:51:14;9.90;;;6.38;;
76447;SDS011;65284;51.040;13.722;2023-07-20T07:53:41;8.63;;;6.07;;
76447;SDS011;65284;51.040;13.722;2023-07-20T07:56:09;8.00;;;6.03;;
76447;SDS011;65284;51.040;13.722;2023-07-20T07:58:36;8.55;;;6.93;;
76447;SDS011;65284;51.040;13.722;2023-07-20T08:01:03;9.23;;;7.05;;
76447;SDS011;65284;51.040;13.722;2023-07-20T08:03:30;8.38;;;5.38;;
76447;SDS011;65284;51.040;13.722;2023-07-20T08:05:57;8.27;;;5.50;;
76447;SDS011;65284;51.040;13.722;2023-07-20T08:08:24;8.18;;;5.32;;
76447;SDS011;65284;51.040;13.722;2023-07-20T08:10:54;11.20;;;6.72;;
76447;SDS011;65284;51.040;13.722;2023-07-20T08:13:21;8.82;;;6.22;;
76447;SDS011;65284;51.040;13.722;2023-07-20T08:15:49;7.90;;;6.07;;
76447;SDS011;65284;51.040;13.722;2023-07-20T08:18:17;8.48;;;6.18;;
76447;SDS011;65284;51.040;13.722;2023-07-20T08:20:44;10.70;;;7.07;;
76447;SDS011;65284;51.040;13.722;2023-07-20T08:23:11;9.10;;;6.63;;
76447;SDS011;65284;51.040;13.722;2023-07-20T08:25:39;7.75;;;5.80;;
76447;SDS011;65284;51.040;13.722;2023-07-20T08:28:10;9.05;;;6.32;;
76447;SDS011;65284;51.040;13.722;2023-07-20T08:30:41;10.52;;;6.38;;
76447;SDS011;65284;51.040;13.722;2023-07-20T08:33:10;9.00;;;6.40;;
76447;SDS011;65284;51.040;13.722;2023-07-20T08:35:37;10.68;;;6.53;;
76447;SDS011;65284;51.040;13.722;2023-07-20T08:38:03;8.65;;;6.57;;
76447;SDS011;65284;51.040;13.722;2023-07-20T08:40:31;8.02;;;6.25;;
76447;SDS011;65284;51.040;13.722;2023-07-20T08:42:58;9.02;;;6.07;;
76447;SDS011;65284;51.040;13.722;2023-07-20T08:45:29;9.02;;;6.03;;
76447;SDS011;65284;51.040;13.722;2023-07-20T08:47:58;8.20;;;5.30;;
76447;SDS011;65284;51.040;13.722;2023-07-20T08:50:27;7.70;;;4.60;;
76447;SDS011;65284;51.040;13.722;2023-07-20T08:52:56;6.05;;;4.85;;
76447;SDS011;65284;51.040;13.722;2023-07-20T08:55:27;6.97;;;4.60;;
76447;SDS011;65284;51.040;13.722;2023-07-20T08:57:55;9.45;;;4.68;;
76447;SDS011;65284;51.040;13.722;2023-07-20T09:00:23;9.23;;;4.72;;
76447;SDS011;65284;51.040;13.722;2023-07-20T09:02:52;7.32;;;5.30;;
76447;SDS011;65284;51.040;13.722;2023-07-20T09:05:20;6.80;;;5.05;;
76447;SDS011;65284;51.040;13.722;2023-07-20T09:07:47;5.70;;;4.50;;
76447;SDS011;65284;51.040;13.722;2023-07-20T09:10:13;6.15;;;4.70;;
76447;SDS011;65284;51.040;13.722;2023-07-20T09:12:40;6.93;;;4.43;;
76447;SDS011;65284;51.040;13.722;2023-07-20T09:15:09;5.40;;;4.53;;
76447;SDS011;65284;51.040;13.722;2023-07-20T09:17:37;6.10;;;4.60;;
76447;SDS011;65284;51.040;13.722;2023-07-20T09:20:07;6.38;;;4.40;;
76447;SDS011;65284;51.040;13.722;2023-07-20T09:22:37;6.82;;;4.53;;
76447;SDS011;65284;51.040;13.722;2023-07-20T09:25:06;6.13;;;4.50;;
76447;SDS011;65284;51.040;13.722;2023-07-20T09:27:43;6.25;;;4.45;;
76447;SDS011;65284;51.040;13.722;2023-07-20T09:30:15;7.95;;;4.85;;
76447;SDS011;65284;51.040;13.722;2023-07-20T09:32:45;6.45;;;4.32;;
76447;SDS011;65284;51.040;13.722;2023-07-20T09:35:18;5.97;;;4.25;;
76447;SDS011;65284;51.040;13.722;2023-07-20T09:40:38;5.85;;;4.35;;
76447;SDS011;65284;51.040;13.722;2023-07-20T09:43:08;6.05;;;4.72;;
76447;SDS011;65284;51.040;13.722;2023-07-20T09:45:42;6.57;;;4.53;;
76447;SDS011;65284;51.040;13.722;2023-07-20T09:48:11;5.65;;;4.05;;
76447;SDS011;65284;51.040;13.722;2023-07-20T09:50:50;7.55;;;4.32;;
76447;SDS011;65284;51.040;13.722;2023-07-20T09:53:18;5.43;;;4.45;;
76447;SDS011;65284;51.040;13.722;2023-07-20T09:55:45;7.82;;;4.57;;
76447;SDS011;65284;51.040;13.722;2023-07-20T09:58:14;5.53;;;4.40;;
76447;SDS011;65284;51.040;13.722;2023-07-20T10:00:41;6.20;;;4.93;;
76447;SDS011;65284;51.040;13.722;2023-07-20T10:03:20;5.63;;;4.47;;
76447;SDS011;65284;51.040;13.722;2023-07-20T10:05:51;5.75;;;4.50;;
76447;SDS011;65284;51.040;13.722;2023-07-20T10:08:21;6.13;;;4.85;;
76447;SDS011;65284;51.040;13.722;2023-07-20T10:10:53;8.95;;;4.70;;
76447;SDS011;65284;51.040;13.722;2023-07-20T10:13:21;11.98;;;6.88;;
76447;SDS011;65284;51.040;13.722;2023-07-20T10:15:54;10.63;;;7.75;;
76447;SDS011;65284;51.040;13.722;2023-07-20T10:21:17;11.18;;;7.57;;
76447;SDS011;65284;51.040;13.722;2023-07-20T10:23:49;10.52;;;7.88;;
76447;SDS011;65284;51.040;13.722;2023-07-20T10:26:16;10.73;;;7.97;;
76447;SDS011;65284;51.040;13.722;2023-07-20T10:28:42;10.98;;;7.72;;
76447;SDS011;65284;51.040;13.722;2023-07-20T10:31:09;11.50;;;8.48;;
76447;SDS011;65284;51.040;13.722;2023-07-20T10:33:38;11.85;;;9.38;;
76447;SDS011;65284;51.040;13.722;2023-07-20T10:36:05;15.38;;;9.15;;
76447;SDS011;65284;51.040;13.722;2023-07-20T10:38:39;12.70;;;9.13;;
76447;SDS011;65284;51.040;13.722;2023-07-20T10:41:15;9.20;;;7.32;;
76447;SDS011;65284;51.040;13.722;2023-07-20T10:43:46;7.72;;;6.45;;
76447;SDS011;65284;51.040;13.722;2023-07-20T10:46:13;11.10;;;5.68;;
76447;SDS011;65284;51.040;13.722;2023-07-20T10:49:22;7.25;;;5.00;;
76447;SDS011;65284;51.040;13.722;2023-07-20T10:51:38;6.50;;;5.03;;
76447;SDS011;65284;51.040;13.722;2023-07-20T10:54:07;6.07;;;4.82;;
76447;SDS011;65284;51.040;13.722;2023-07-20T10:56:55;5.32;;;4.50;;
76447;SDS011;65284;51.040;13.722;2023-07-20T11:01:49;6.57;;;4.82;;
76447;SDS011;65284;51.040;13.722;2023-07-20T11:04:19;6.47;;;5.63;;
76447;SDS011;65284;51.040;13.722;2023-07-20T11:06:46;10.35;;;6.10;;
76447;SDS011;65284;51.040;13.722;2023-07-20T11:09:22;9.55;;;7.60;;
76447;SDS011;65284;51.040;13.722;2023-07-20T11:11:54;11.32;;;8.10;;
76447;SDS011;65284;51.040;13.722;2023-07-20T11:14:36;11.43;;;9.52;;
76447;SDS011;65284;51.040;13.722;2023-07-20T11:17:13;14.15;;;10.40;;
76447;SDS011;65284;51.040;13.722;2023-07-20T11:19:41;12.63;;;9.43;;
76447;SDS011;65284;51.040;13.722;2023-07-20T11:22:11;11.20;;;8.48;;
76447;SDS011;65284;51.040;13.722;2023-07-20T11:24:38;9.85;;;8.00;;
76447;SDS011;65284;51.040;13.722;2023-07-20T11:27:06;14.05;;;9.57;;
76447;SDS011;65284;51.040;13.722;2023-07-20T11:29:32;11.90;;;9.77;;
76447;SDS011;65284;51.040;13.722;2023-07-20T11:32:00;10.50;;;9.05;;
76447;SDS011;65284;51.040;13.722;2023-07-20T11:34:31;12.30;;;9.40;;
76447;SDS011;65284;51.040;13.722;2023-07-20T11:36:59;11.85;;;9.90;;
76447;SDS011;65284;51.040;13.722;2023-07-20T11:39:28;12.02;;;10.13;;
76447;SDS011;65284;51.040;13.722;2023-07-20T11:41:56;10.80;;;9.07;;
76447;SDS011;65284;51.040;13.722;2023-07-20T11:44:24;10.50;;;9.32;;
76447;SDS011;65284;51.040;13.722;2023-07-20T11:47:03;7.80;;;6.90;;
76447;SDS011;65284;51.040;13.722;2023-07-20T11:49:34;10.95;;;7.50;;
76447;SDS011;65284;51.040;13.722;2023-07-20T11:52:08;8.48;;;7.20;;
76447;SDS011;65284;51.040;13.722;2023-07-20T11:54:38;9.63;;;7.35;;
76447;SDS011;65284;51.040;13.722;2023-07-20T11:57:06;9.75;;;7.43;;
76447;SDS011;65284;51.040;13.722;2023-07-20T11:59:33;9.80;;;7.32;;
76447;SDS011;65284;51.040;13.722;2023-07-20T12:02:03;8.18;;;6.90;;
76447;SDS011;65284;51.040;13.722;2023-07-20T12:04:33;7.65;;;6.78;;
76447;SDS011;65284;51.040;13.722;2023-07-20T12:07:00;8.77;;;6.47;;
76447;SDS011;65284;51.040;13.722;2023-07-20T12:09:26;6.20;;;5.60;;
76447;SDS011;65284;51.040;13.722;2023-07-20T12:12:10;6.25;;;5.65;;
76447;SDS011;65284;51.040;13.722;2023-07-20T12:14:39;7.47;;;5.97;;
76447;SDS011;65284;51.040;13.722;2023-07-20T12:17:07;8.93;;;6.30;;
76447;SDS011;65284;51.040;13.722;2023-07-20T12:19:37;7.25;;;6.43;;
76447;SDS011;65284;51.040;13.722;2023-07-20T12:22:05;7.97;;;6.80;;
76447;SDS011;65284;51.040;13.722;2023-07-20T12:24:32;9.27;;;7.40;;
76447;SDS011;65284;51.040;13.722;2023-07-20T12:26:59;10.18;;;8.70;;
76447;SDS011;65284;51.040;13.722;2023-07-20T12:29:25;12.95;;;9.38;;
76447;SDS011;65284;51.040;13.722;2023-07-20T12:31:52;12.50;;;9.68;;
76447;SDS011;65284;51.040;13.722;2023-07-20T12:34:19;11.38;;;8.88;;
76447;SDS011;65284;51.040;13.722;2023-07-20T12:36:45;12.57;;;11.20;;
76447;SDS011;65284;51.040;13.722;2023-07-20T12:39:11;14.90;;;12.15;;
76447;SDS011;65284;51.040;13.722;2023-07-20T12:41:38;15.05;;;12.65;;
76447;SDS011;65284;51.040;13.722;2023-07-20T12:44:04;16.77;;;13.48;;
76447;SDS011;65284;51.040;13.722;2023-07-20T12:46:31;15.63;;;12.23;;
76447;SDS011;65284;51.040;13.722;2023-07-20T12:49:01;7.53;;;5.97;;
76447;SDS011;65284;51.040;13.722;2023-07-20T12:51:27;7.50;;;6.10;;
76447;SDS011;65284;51.040;13.722;2023-07-20T12:53:54;9.35;;;6.43;;
76447;SDS011;65284;51.040;13.722;2023-07-20T12:56:20;8.60;;;6.65;;
76447;SDS011;65284;51.040;13.722;2023-07-20T12:58:50;9.32;;;6.32;;
76447;SDS011;65284;51.040;13.722;2023-07-20T13:01:16;9.43;;;7.35;;
76447;SDS011;65284;51.040;13.722;2023-07-20T13:03:43;9.20;;;6.88;;
76447;SDS011;65284;51.040;13.722;2023-07-20T13:06:12;10.77;;;6.60;;
76447;SDS011;65284;51.040;13.722;2023-07-20T13:08:42;9.95;;;6.32;;
76447;SDS011;65284;51.040;13.722;2023-07-20T13:11:08;8.45;;;6.20;;
76447;SDS011;65284;51.040;13.722;2023-07-20T13:13:35;7.10;;;5.53;;
76447;SDS011;65284;51.040;13.722;2023-07-20T13:16:02;8.95;;;5.22;;
76447;SDS011;65284;51.040;13.722;2023-07-20T13:18:29;6.78;;;5.03;;
76447;SDS011;65284;51.040;13.722;2023-07-20T13:20:56;5.65;;;4.40;;
76447;SDS011;65284;51.040;13.722;2023-07-20T13:23:23;5.72;;;3.80;;
76447;SDS011;65284;51.040;13.722;2023-07-20T13:25:49;5.10;;;3.92;;
76447;SDS011;65284;51.040;13.722;2023-07-20T13:28:16;6.72;;;4.00;;
76447;SDS011;65284;51.040;13.722;2023-07-20T13:30:43;6.13;;;3.80;;
76447;SDS011;65284;51.040;13.722;2023-07-20T13:33:11;9.70;;;3.88;;
76447;SDS011;65284;51.040;13.722;2023-07-20T13:35:42;5.72;;;4.00;;
76447;SDS011;65284;51.040;13.722;2023-07-20T13:38:12;7.28;;;3.70;;
76447;SDS011;65284;51.040;13.722;2023-07-20T13:40:38;5.30;;;3.42;;
76447;SDS011;65284;51.040;13.722;2023-07-20T13:43:05;5.05;;;3.13;;
76447;SDS011;65284;51.040;13.722;2023-07-20T13:45:32;4.88;;;3.25;;
76447;SDS011;65284;51.040;13.722;2023-07-20T13:47:58;4.97;;;3.10;;
76447;SDS011;65284;51.040;13.722;2023-07-20T13:50:28;6.25;;;2.83;;
76447;SDS011;65284;51.040;13.722;2023-07-20T13:53:07;5.97;;;2.47;;
76447;SDS011;65284;51.040;13.722;2023-07-20T13:55:37;3.38;;;2.40;;
76447;SDS011;65284;51.040;13.722;2023-07-20T13:58:07;4.20;;;2.53;;
76447;SDS011;65284;51.040;13.722;2023-07-20T14:00:38;3.38;;;2.38;;
76447;SDS011;65284;51.040;13.722;2023-07-20T14:03:05;3.97;;;2.08;;
76447;SDS011;65284;51.040;13.722;2023-07-20T14:05:34;3.15;;;2.00;;
76447;SDS011;65284;51.040;13.722;2023-07-20T14:08:04;2.55;;;1.83;;
76447;SDS011;65284;51.040;13.722;2023-07-20T14:10:31;3.30;;;1.90;;
76447;SDS011;65284;51.040;13.722;2023-07-20T14:12:58;3.10;;;1.60;;
76447;SDS011;65284;51.040;13.722;2023-07-20T14:15:24;2.67;;;1.73;;
76447;SDS011;65284;51.040;13.722;2023-07-20T14:17:50;3.08;;;1.83;;
76447;SDS011;65284;51.040;13.722;2023-07-20T14:20:19;3.78;;;1.98;;
76447;SDS011;65284;51.040;13.722;2023-07-20T14:22:48;3.30;;;2.08;;
76447;SDS011;65284;51.040;13.722;2023-07-20T14:25:17;3.42;;;2.00;;
76447;SDS011;65284;51.040;13.722;2023-07-20T14:27:45;4.35;;;2.05;;
76447;SDS011;65284;51.040;13.722;2023-07-20T14:30:12;3.85;;;2.20;;
76447;SDS011;65284;51.040;13.722;2023-07-20T14:32:40;3.47;;;2.20;;
76447;SDS011;65284;51.040;13.722;2023-07-20T14:35:07;3.85;;;2.20;;
76447;SDS011;65284;51.040;13.722;2023-07-20T14:37:36;4.80;;;2.40;;
76447;SDS011;65284;51.040;13.722;2023-07-20T14:40:02;3.17;;;2.13;;
76447;SDS011;65284;51.040;13.722;2023-07-20T14:42:31;3.35;;;2.00;;
76447;SDS011;65284;51.040;13.722;2023-07-20T14:44:58;3.03;;;2.13;;
76447;SDS011;65284;51.040;13.722;2023-07-20T14:47:25;3.50;;;2.10;;
76447;SDS011;65284;51.040;13.722;2023-07-20T14:49:51;3.95;;;2.30;;
76447;SDS011;65284;51.040;13.722;2023-07-20T14:52:18;4.57;;;2.22;;